Time;durP1;ratioP1;P1;durP2;ratioP2;P2;SDS_P1;SDS_P2;PMS_P1;PMS_P2;Temp;Humidity;BMP_temperature;BMP_pressure;BME280_temperature;BME280_humidity;BME280_pressure;Samples;Min_cycle;Max_cycle;Signal;HPM_P1;HPM_P2
2021/07/16 00:02:24;;;;;;;14.30;4.17;;;;;;;20.67;95.29;100512.58;1737975;81;20941;-40
2021/07/16 00:04:50;;;;;;;16.00;4.08;;;;;;;20.60;95.57;100501.19;1737687;81;20985;-40
2021/07/16 00:07:17;;;;;;;37.30;5.53;;;;;;;20.53;95.83;100498.08;1741637;80;20940;-41
2021/07/16 00:09:43;;;;;;;40.65;5.53;;;;;;;20.46;95.76;100503.33;1727979;80;21784;-40
2021/07/16 00:12:10;;;;;;;30.32;5.55;;;;;;;20.36;95.65;100506.97;1750351;80;21599;-40
2021/07/16 00:14:37;;;;;;;28.07;5.08;;;;;;;20.28;95.56;100506.10;1755496;80;20975;-39
2021/07/16 00:17:04;;;;;;;20.35;4.65;;;;;;;20.21;95.60;100507.41;1748756;80;21023;-39
2021/07/16 00:19:30;;;;;;;29.55;5.55;;;;;;;20.14;95.68;100503.45;1724552;80;21030;-40
2021/07/16 00:21:58;;;;;;;25.68;5.62;;;;;;;20.12;96.37;100507.95;1751084;79;20972;-40
2021/07/16 00:24:25;;;;;;;27.65;5.83;;;;;;;20.08;96.68;100508.13;1752357;80;21027;-40
2021/07/16 00:26:52;;;;;;;32.42;6.03;;;;;;;20.05;97.05;100508.28;1742733;80;20972;-41
2021/07/16 00:29:18;;;;;;;33.20;5.83;;;;;;;20.04;97.58;100502.65;1723744;80;21100;-41
2021/07/16 00:31:45;;;;;;;31.57;5.05;;;;;;;20.01;97.80;100502.83;1723982;80;21003;-40
2021/07/16 00:34:12;;;;;;;21.30;4.95;;;;;;;19.99;98.07;100508.64;1761367;80;21739;-40
2021/07/16 00:36:39;;;;;;;27.58;5.60;;;;;;;19.95;98.23;100509.75;1747130;81;21501;-40
2021/07/16 00:39:05;;;;;;;20.15;4.22;;;;;;;19.94;98.48;100515.95;1748382;80;21042;-40
2021/07/16 00:41:31;;;;;;;15.65;4.85;;;;;;;19.91;98.75;100514.33;1737626;81;21055;-40
2021/07/16 00:43:59;;;;;;;20.35;4.58;;;;;;;19.90;99.14;100511.77;1737269;81;21568;-40
2021/07/16 00:46:26;;;;;;;19.45;5.03;;;;;;;19.92;99.57;100506.83;1738068;80;21198;-40
2021/07/16 00:48:52;;;;;;;27.07;5.55;;;;;;;19.93;99.77;100507.69;1733409;80;21022;-40
2021/07/16 00:51:18;;;;;;;37.17;5.70;;;;;;;19.90;99.78;100509.97;1733632;80;20925;-40
2021/07/16 00:53:45;;;;;;;30.60;4.62;;;;;;;19.87;99.85;100517.20;1741040;80;20987;-41
2021/07/16 00:56:11;;;;;;;24.52;4.97;;;;;;;19.84;100.00;100520.00;1734623;81;20969;-41
2021/07/16 00:58:39;;;;;;;32.53;5.28;;;;;;;19.80;100.00;100518.84;1714196;81;21050;-41
2021/07/16 01:01:06;;;;;;;36.30;5.50;;;;;;;19.78;100.00;100518.08;1749566;80;21049;-40
2021/07/16 01:03:32;;;;;;;37.63;5.85;;;;;;;19.74;100.00;100511.31;1657110;83;21081;-41
2021/07/16 01:06:01;;;;;;;26.45;5.60;;;;;;;19.73;100.00;100509.62;1690783;83;21002;-40
2021/07/16 01:08:28;;;;;;;42.83;5.50;;;;;;;19.72;100.00;100516.29;1702353;82;21285;-40
2021/07/16 01:10:57;;;;;;;37.63;5.12;;;;;;;19.68;100.00;100521.69;1700325;81;20992;-40
2021/07/16 01:13:23;;;;;;;18.85;4.37;;;;;;;19.69;100.00;100521.23;1698483;83;21054;-41
2021/07/16 01:15:54;;;;;;;30.05;4.97;;;;;;;19.71;100.00;100519.37;1740329;80;20940;-41
2021/07/16 01:18:20;;;;;;;23.55;3.95;;;;;;;19.76;100.00;100515.18;1751593;80;21153;-41
2021/07/16 01:20:47;;;;;;;14.65;4.67;;;;;;;19.80;100.00;100522.78;1739150;80;21055;-40
2021/07/16 01:23:24;;;;;;;26.35;4.67;;;;;;;19.82;100.00;100516.97;1732601;81;21106;-41
2021/07/16 01:28:21;;;;;;;17.98;5.03;;;;;;;19.89;100.00;100517.96;1792022;79;22680;-39
2021/07/16 01:30:51;;;;;;;22.87;4.65;;;;;;;19.85;100.00;100523.02;1757213;80;21528;-39
2021/07/16 01:33:19;;;;;;;29.30;5.60;;;;;;;19.82;100.00;100525.33;1771201;80;22075;-40
2021/07/16 01:35:46;;;;;;;34.58;5.95;;;;;;;19.79;100.00;100525.02;1757839;80;21026;-40
2021/07/16 01:38:13;;;;;;;24.50;5.47;;;;;;;19.70;100.00;100522.92;1756067;80;20981;-39
2021/07/16 01:40:39;;;;;;;27.13;5.20;;;;;;;19.63;100.00;100517.64;1712902;81;20955;-38
2021/07/16 01:43:07;;;;;;;31.17;5.40;;;;;;;19.57;100.00;100520.59;1714878;81;20976;-40
2021/07/16 01:45:38;;;;;;;40.35;5.72;;;;;;;19.46;100.00;100518.09;1751146;81;21848;-40
2021/07/16 01:48:08;;;;;;;29.00;4.70;;;;;;;19.36;100.00;100519.06;1734272;81;21087;-39
2021/07/16 01:50:36;;;;;;;42.55;5.80;;;;;;;19.29;100.00;100517.71;1688355;83;21030;-40
2021/07/16 01:53:03;;;;;;;46.40;5.53;;;;;;;19.25;100.00;100514.87;1717612;83;21093;-40
2021/07/16 01:55:32;;;;;;;30.43;4.78;;;;;;;19.20;100.00;100512.49;1716113;83;21073;-39
2021/07/16 01:58:00;;;;;;;32.10;5.30;;;;;;;19.18;100.00;100510.42;1722659;82;21294;-39
2021/07/16 02:00:29;;;;;;;59.75;5.55;;;;;;;19.14;100.00;100511.52;1729522;81;20967;-39
2021/07/16 02:03:02;;;;;;;49.55;6.75;;;;;;;19.14;100.00;100506.72;1743324;81;20984;-39
2021/07/16 02:05:28;;;;;;;39.90;6.10;;;;;;;19.14;100.00;100505.41;1718582;83;21111;-40
2021/07/16 02:08:04;;;;;;;53.10;6.80;;;;;;;19.15;100.00;100507.96;1695759;83;21051;-38
2021/07/16 02:10:33;;;;;;;63.40;6.47;;;;;;;19.16;100.00;100507.03;1703745;83;20986;-39
2021/07/16 02:13:00;;;;;;;102.80;10.68;;;;;;;19.17;100.00;100510.04;1689292;84;21038;-39
2021/07/16 02:15:31;;;;;;;117.77;11.95;;;;;;;19.19;100.00;100504.69;1707582;84;21577;-39
2021/07/16 02:17:59;;;;;;;104.67;14.83;;;;;;;19.19;100.00;100508.17;1698095;84;21027;-39
2021/07/16 02:20:28;;;;;;;110.80;13.83;;;;;;;19.21;100.00;100503.69;1685772;83;21016;-39
2021/07/16 02:22:59;;;;;;;114.90;13.90;;;;;;;19.22;100.00;100500.14;1682106;84;20957;-41
2021/07/16 02:25:26;;;;;;;86.10;11.50;;;;;;;19.24;100.00;100499.59;1689638;82;22295;-40
2021/07/16 02:27:55;;;;;;;126.05;11.60;;;;;;;19.28;100.00;100490.23;1703714;84;21004;-41
2021/07/16 02:30:23;;;;;;;94.85;12.07;;;;;;;19.30;100.00;100494.48;1744971;82;20951;-42
2021/07/16 02:32:51;;;;;;;66.40;10.38;;;;;;;19.34;100.00;100495.16;1736972;82;21018;-40
2021/07/16 02:35:18;;;;;;;134.20;14.03;;;;;;;19.38;100.00;100488.33;1745216;82;21646;-40
2021/07/16 02:37:44;;;;;;;82.33;11.30;;;;;;;19.43;100.00;100480.22;1738517;82;20995;-41
2021/07/16 02:40:14;;;;;;;198.25;19.17;;;;;;;19.49;100.00;100482.97;1726353;82;20952;-40
2021/07/16 02:42:42;;;;;;;119.05;12.80;;;;;;;19.55;100.00;100486.56;1745548;82;20983;-40
2021/07/16 02:45:13;;;;;;;91.78;13.48;;;;;;;19.64;100.00;100496.53;1745695;82;21111;-40
2021/07/16 02:47:39;;;;;;;91.67;10.82;;;;;;;19.75;100.00;100495.94;1743881;82;21085;-41
2021/07/16 02:50:12;;;;;;;61.37;8.03;;;;;;;19.87;100.00;100495.71;1745020;82;20975;-41
2021/07/16 02:52:40;;;;;;;51.53;7.67;;;;;;;19.95;100.00;100499.25;1736255;82;20974;-40
2021/07/16 02:55:09;;;;;;;53.80;5.37;;;;;;;20.03;100.00;100499.64;1714185;82;21002;-41
2021/07/16 02:57:36;;;;;;;72.60;8.48;;;;;;;20.17;98.93;100500.16;1744031;82;20971;-38
2021/07/16 03:00:06;;;;;;;73.65;11.95;;;;;;;20.30;97.63;100492.88;1741014;82;21182;-39
2021/07/16 03:02:39;;;;;;;67.15;9.95;;;;;;;20.44;97.08;100494.70;1744018;82;20916;-39
2021/07/16 03:05:08;;;;;;;68.65;11.12;;;;;;;20.53;96.80;100490.19;1745169;82;20971;-40
2021/07/16 03:07:35;;;;;;;85.30;10.45;;;;;;;20.64;96.42;100486.92;1716505;82;20932;-39
2021/07/16 03:10:03;;;;;;;73.57;11.15;;;;;;;20.74;96.40;100483.27;1730718;82;20896;-40
2021/07/16 03:12:29;;;;;;;77.58;10.75;;;;;;;20.83;96.30;100476.15;1744768;82;21148;-38
2021/07/16 03:14:57;;;;;;;70.22;8.45;;;;;;;20.92;95.83;100476.05;1736921;82;20963;-39
2021/07/16 03:17:24;;;;;;;55.30;8.38;;;;;;;21.03;95.79;100483.28;1733146;82;20963;-40
2021/07/16 03:19:50;;;;;;;53.25;8.43;;;;;;;21.13;95.81;100491.45;1745867;82;20955;-39
2021/07/16 03:22:19;;;;;;;70.35;7.65;;;;;;;21.22;95.84;100490.90;1739420;81;20963;-39
2021/07/16 03:24:45;;;;;;;47.50;8.18;;;;;;;21.33;94.83;100495.45;1722525;82;21304;-40
2021/07/16 03:27:11;;;;;;;38.58;7.47;;;;;;;21.44;94.35;100493.47;1720022;82;21018;-41
2021/07/16 03:29:38;;;;;;;76.22;7.42;;;;;;;21.59;94.05;100498.22;1726363;82;20904;-39
2021/07/16 03:32:06;;;;;;;60.58;5.97;;;;;;;21.72;93.61;100489.08;1728877;81;20979;-39
2021/07/16 03:34:33;;;;;;;49.45;5.08;;;;;;;21.80;91.72;100494.23;1734966;82;21442;-39
2021/07/16 03:37:01;;;;;;;78.33;5.40;;;;;;;21.88;89.06;100499.49;1742056;80;21418;-41
2021/07/16 03:39:28;;;;;;;32.45;4.17;;;;;;;21.99;86.80;100494.34;1738145;82;21494;-40
2021/07/16 03:41:55;;;;;;;37.40;4.37;;;;;;;22.12;85.10;100489.59;1742161;82;21512;-39
2021/07/16 03:44:21;;;;;;;53.50;5.67;;;;;;;22.22;83.31;100485.38;1741021;82;20888;-40
2021/07/16 03:46:48;;;;;;;18.80;3.22;;;;;;;22.34;82.21;100489.81;1745222;82;21022;-41
2021/07/16 03:49:14;;;;;;;17.07;3.62;;;;;;;22.48;80.68;100493.34;1744835;80;22662;-39
2021/07/16 03:51:40;;;;;;;24.20;3.98;;;;;;;22.60;79.30;100497.77;1732442;82;20932;-40
2021/07/16 03:54:09;;;;;;;28.15;3.00;;;;;;;22.74;78.22;100498.63;1727077;82;20916;-40
2021/07/16 03:56:35;;;;;;;40.45;3.87;;;;;;;22.92;77.10;100497.81;1737324;80;21019;-39
2021/07/16 03:59:01;;;;;;;29.72;3.90;;;;;;;23.11;76.35;100488.97;1733828;80;20988;-40
2021/07/16 04:01:28;;;;;;;39.03;4.12;;;;;;;23.36;76.09;100492.98;1726099;82;21256;-40
2021/07/16 04:03:55;;;;;;;54.50;5.15;;;;;;;23.61;75.41;100495.17;1715668;82;21010;-41
2021/07/16 04:06:21;;;;;;;56.00;6.00;;;;;;;23.90;74.85;100497.50;1741761;82;20983;-40
2021/07/16 04:08:49;;;;;;;33.88;3.40;;;;;;;24.19;73.34;100493.17;1741151;82;21548;-41
2021/07/16 04:11:16;;;;;;;15.93;3.22;;;;;;;24.45;71.96;100489.02;1726180;82;21010;-41
2021/07/16 04:13:43;;;;;;;14.80;2.95;;;;;;;24.71;70.92;100491.45;1725544;80;21144;-41
2021/07/16 04:16:11;;;;;;;11.57;2.92;;;;;;;24.94;70.54;100493.17;1739192;80;20975;-40
2021/07/16 04:18:39;;;;;;;25.82;3.22;;;;;;;25.15;68.68;100488.47;1737822;82;20995;-40
2021/07/16 04:21:06;;;;;;;24.65;3.30;;;;;;;25.31;67.37;100492.52;1734777;80;20967;-39
2021/07/16 04:23:32;;;;;;;12.37;2.72;;;;;;;25.45;66.38;100494.91;1738409;81;20963;-40
2021/07/16 04:25:59;;;;;;;8.80;2.90;;;;;;;25.58;66.00;100492.59;1733738;82;21102;-41
2021/07/16 04:28:25;;;;;;;6.95;2.27;;;;;;;25.72;65.19;100491.00;1713685;82;21054;-41
2021/07/16 04:30:52;;;;;;;16.65;2.65;;;;;;;25.89;64.40;100495.37;1702643;82;20972;-41
2021/07/16 04:33:19;;;;;;;10.72;2.80;;;;;;;26.01;63.00;100497.02;1736402;82;21501;-40
2021/07/16 04:35:46;;;;;;;15.58;2.60;;;;;;;26.06;61.83;100496.14;1735392;82;20939;-40
2021/07/16 04:38:12;;;;;;;14.28;2.80;;;;;;;26.15;62.16;100502.98;1733916;82;21923;-41
2021/07/16 04:40:39;;;;;;;14.75;3.15;;;;;;;26.27;62.65;100499.31;1713790;82;21995;-40
2021/07/16 04:43:05;;;;;;;19.10;3.00;;;;;;;26.48;62.50;100501.13;1736125;82;21587;-40
2021/07/16 04:45:37;;;;;;;15.85;2.70;;;;;;;26.63;61.29;100494.48;1736250;82;20983;-40
2021/07/16 04:48:01;;;;;;;12.82;3.02;;;;;;;26.78;61.09;100500.30;1737041;82;20991;-39
2021/07/16 04:50:28;;;;;;;12.33;2.90;;;;;;;26.96;60.26;100494.37;1729254;82;21108;-43
2021/07/16 04:59:27;;;;;;;8.05;2.87;;;;;;;27.23;59.95;100491.11;1816711;77;22755;-37
2021/07/16 05:01:57;;;;;;;16.87;2.87;;;;;;;27.35;60.04;100490.98;1774158;79;21524;-37
2021/07/16 05:04:23;;;;;;;7.33;2.52;;;;;;;27.49;60.30;100491.92;1724337;82;21810;-38
2021/07/16 05:06:51;;;;;;;11.63;2.77;;;;;;;27.65;59.55;100498.05;1745913;81;21504;-38
2021/07/16 05:09:19;;;;;;;18.25;3.30;;;;;;;27.79;59.83;100495.46;1711000;82;21258;-38
2021/07/16 05:11:45;;;;;;;9.05;3.02;;;;;;;27.98;59.40;100497.77;1718838;82;21517;-39
2021/07/16 05:14:13;;;;;;;15.75;2.90;;;;;;;28.09;57.93;100500.27;1706706;82;21020;-39
2021/07/16 05:16:39;;;;;;;29.67;3.90;;;;;;;28.18;56.64;100495.13;1702350;82;21193;-38
2021/07/16 05:19:06;;;;;;;12.53;2.92;;;;;;;28.27;56.78;100496.06;1706892;82;20991;-38
2021/07/16 05:21:33;;;;;;;9.10;2.85;;;;;;;28.44;56.65;100497.17;1733491;81;20987;-38
2021/07/16 05:24:00;;;;;;;12.85;3.35;;;;;;;28.59;55.21;100493.55;1730238;82;21203;-40
2021/07/16 05:26:28;;;;;;;8.05;2.40;;;;;;;28.75;55.40;100483.61;1712827;82;21619;-38
2021/07/16 05:28:54;;;;;;;13.88;2.47;;;;;;;28.83;52.59;100486.39;1723900;82;20993;-39
2021/07/16 05:31:21;;;;;;;16.95;3.30;;;;;;;28.85;54.52;100492.92;1743539;81;21061;-38
2021/07/16 05:33:47;;;;;;;8.55;3.45;;;;;;;28.96;55.00;100482.05;1715471;81;21474;-40
2021/07/16 05:36:14;;;;;;;17.07;4.08;;;;;;;28.96;52.45;100481.58;1721545;82;21090;-39
2021/07/16 05:38:43;;;;;;;11.68;3.62;;;;;;;29.00;52.05;100478.61;1720786;82;20987;-39
2021/07/16 05:41:09;;;;;;;26.23;3.12;;;;;;;29.04;51.80;100480.81;1696016;83;21191;-39
2021/07/16 05:43:37;;;;;;;27.37;3.27;;;;;;;29.15;49.83;100474.44;1779045;79;20885;-39
2021/07/16 05:46:06;;;;;;;6.17;2.70;;;;;;;29.16;51.04;100488.61;1776866;79;20940;-39
2021/07/16 05:48:33;;;;;;;12.33;3.15;;;;;;;29.18;50.89;100474.64;1771187;79;21697;-39
2021/07/16 05:51:00;;;;;;;6.65;2.80;;;;;;;29.28;49.35;100479.41;1776583;79;21527;-39
2021/07/16 05:53:27;;;;;;;8.83;2.80;;;;;;;29.23;50.35;100475.03;1759936;79;21175;-39
2021/07/16 05:55:54;;;;;;;9.25;2.83;;;;;;;29.14;50.01;100468.77;1764721;80;20975;-39
2021/07/16 05:58:20;;;;;;;5.17;2.50;;;;;;;29.18;50.17;100473.31;1745508;80;21033;-39
2021/07/16 06:00:48;;;;;;;7.47;2.77;;;;;;;29.19;50.37;100471.84;1747269;80;21119;-39
2021/07/16 06:03:14;;;;;;;7.75;2.60;;;;;;;29.24;50.66;100474.89;1730675;81;20947;-39
2021/07/16 06:05:42;;;;;;;10.58;3.15;;;;;;;29.25;51.04;100477.05;1742389;81;21183;-38
2021/07/16 06:08:09;;;;;;;10.70;3.08;;;;;;;29.20;51.35;100474.85;1734035;81;21112;-39
2021/07/16 06:10:37;;;;;;;34.98;3.27;;;;;;;29.16;51.10;100473.45;1744456;80;20968;-39
2021/07/16 06:13:05;;;;;;;22.85;3.02;;;;;;;29.24;50.22;100473.56;1754499;80;20966;-39
2021/07/16 06:15:32;;;;;;;12.28;2.67;;;;;;;29.30;51.03;100476.61;1759166;81;20998;-39
2021/07/16 06:18:00;;;;;;;30.10;3.75;;;;;;;29.42;50.95;100476.75;1741213;81;21132;-39
2021/07/16 06:20:27;;;;;;;36.98;3.70;;;;;;;29.44;49.50;100475.27;1750806;81;21007;-39
2021/07/16 06:22:53;;;;;;;30.23;3.98;;;;;;;29.39;49.62;100473.02;1742601;80;21011;-39
2021/07/16 06:25:20;;;;;;;57.83;4.75;;;;;;;29.38;51.12;100468.69;1731572;81;21598;-39
2021/07/16 06:27:47;;;;;;;36.20;4.90;;;;;;;29.43;51.23;100474.45;1739645;81;20966;-39
2021/07/16 06:30:15;;;;;;;66.17;4.92;;;;;;;29.52;51.31;100473.53;1726837;80;21622;-39
2021/07/16 06:32:45;;;;;;;49.20;4.85;;;;;;;29.65;50.59;100465.15;1732822;80;21035;-39
2021/07/16 06:35:12;;;;;;;28.65;4.08;;;;;;;29.71;49.88;100466.38;1728136;81;21092;-39
2021/07/16 06:37:38;;;;;;;11.05;3.37;;;;;;;29.74;50.06;100464.73;1732206;81;21841;-39
2021/07/16 06:40:07;;;;;;;42.83;3.70;;;;;;;29.72;49.64;100458.71;1711286;80;21055;-38
2021/07/16 06:42:34;;;;;;;19.15;3.85;;;;;;;29.77;50.27;100467.56;1732174;81;21124;-38
2021/07/16 06:45:00;;;;;;;35.98;4.20;;;;;;;29.83;49.25;100461.13;1740878;81;22251;-39
2021/07/16 06:47:27;;;;;;;57.38;4.95;;;;;;;29.92;50.33;100459.36;1738525;81;21005;-39
2021/07/16 06:49:55;;;;;;;33.20;4.10;;;;;;;30.03;49.91;100458.79;1719353;81;20971;-39
2021/07/16 06:52:23;;;;;;;42.67;4.50;;;;;;;30.16;49.89;100456.56;1713893;80;21037;-39
2021/07/16 06:54:50;;;;;;;16.05;4.12;;;;;;;30.38;50.54;100457.02;1722154;81;21979;-39
2021/07/16 06:57:16;;;;;;;9.63;3.02;;;;;;;30.50;49.76;100461.08;1739302;81;21481;-38
2021/07/16 06:59:43;;;;;;;20.57;3.45;;;;;;;30.40;50.58;100463.86;1745815;81;21035;-39
2021/07/16 07:02:09;;;;;;;7.10;2.92;;;;;;;30.30;51.27;100455.14;1740132;81;21603;-39
2021/07/16 07:04:36;;;;;;;10.10;2.80;;;;;;;30.30;49.32;100462.30;1707226;81;21132;-39
2021/07/16 07:07:05;;;;;;;19.60;3.77;;;;;;;30.19;50.15;100462.06;1739354;81;20997;-39
2021/07/16 07:09:32;;;;;;;6.67;3.08;;;;;;;30.22;50.67;100459.10;1714421;80;21083;-40
2021/07/16 07:11:59;;;;;;;11.83;3.35;;;;;;;30.30;49.59;100460.96;1740624;81;21161;-39
2021/07/16 07:14:26;;;;;;;13.32;3.47;;;;;;;30.31;50.75;100454.14;1745509;80;21004;-39
2021/07/16 07:16:54;;;;;;;14.50;3.77;;;;;;;30.44;50.91;100455.53;1738349;81;21108;-39
2021/07/16 07:19:21;;;;;;;33.65;4.78;;;;;;;30.56;48.92;100456.94;1730573;81;21007;-38
2021/07/16 07:21:47;;;;;;;17.17;3.42;;;;;;;30.57;49.47;100453.76;1741065;81;20970;-39
2021/07/16 07:24:13;;;;;;;13.53;3.58;;;;;;;30.59;49.10;100449.95;1741853;81;21123;-39
2021/07/16 07:26:40;;;;;;;27.15;4.65;;;;;;;30.57;48.36;100449.27;1741452;81;21130;-39
2021/07/16 07:29:06;;;;;;;10.23;3.70;;;;;;;30.54;48.35;100449.59;1749194;80;21024;-39
2021/07/16 07:31:33;;;;;;;26.27;4.12;;;;;;;30.54;48.80;100448.26;1732059;81;21083;-40
2021/07/16 07:34:00;;;;;;;16.57;3.90;;;;;;;30.61;48.78;100446.64;1721366;81;20991;-39
2021/07/16 07:36:26;;;;;;;34.50;5.00;;;;;;;30.66;49.24;100454.19;1742045;81;21007;-39
2021/07/16 07:38:53;;;;;;;12.35;3.83;;;;;;;30.68;48.78;100454.34;1733083;81;20961;-39
2021/07/16 07:41:21;;;;;;;23.77;4.00;;;;;;;30.82;49.22;100449.41;1723287;82;21016;-39
2021/07/16 07:43:48;;;;;;;25.72;4.58;;;;;;;31.02;48.32;100449.95;1723766;82;21119;-39
2021/07/16 07:46:18;;;;;;;37.95;4.62;;;;;;;31.17;47.92;100444.81;1736058;81;21047;-39
2021/07/16 07:48:44;;;;;;;56.40;6.28;;;;;;;31.31;49.69;100444.70;1718280;81;22610;-40
2021/07/16 07:51:10;;;;;;;47.10;5.40;;;;;;;31.55;48.13;100439.03;1706971;81;21018;-40
2021/07/16 07:53:37;;;;;;;17.80;5.03;;;;;;;31.62;48.20;100440.06;1731558;81;21557;-39
2021/07/16 07:56:05;;;;;;;13.88;3.83;;;;;;;31.66;47.25;100441.88;1721353;81;21099;-39
2021/07/16 07:58:31;;;;;;;45.00;5.67;;;;;;;31.59;47.85;100440.89;1690596;81;21019;-39
2021/07/16 08:00:58;;;;;;;57.25;5.83;;;;;;;31.56;48.20;100435.36;1728389;81;21536;-38
2021/07/16 08:03:24;;;;;;;27.80;4.83;;;;;;;31.52;48.16;100436.70;1739148;81;20960;-39
2021/07/16 08:05:51;;;;;;;34.10;5.40;;;;;;;31.64;47.69;100433.19;1734730;81;21107;-39
2021/07/16 08:08:18;;;;;;;17.80;5.12;;;;;;;31.70;48.59;100432.52;1723408;81;21117;-39
2021/07/16 08:10:46;;;;;;;10.82;4.10;;;;;;;31.77;47.83;100438.91;1740799;81;21034;-39
2021/07/16 08:13:12;;;;;;;6.05;3.92;;;;;;;31.63;47.75;100428.36;1723779;81;20935;-39
2021/07/16 08:15:39;;;;;;;23.80;4.08;;;;;;;31.62;48.36;100433.37;1713614;82;21026;-39
2021/07/16 08:18:05;;;;;;;33.25;5.72;;;;;;;31.65;45.78;100430.36;1721743;81;21020;-39
2021/07/16 08:20:32;;;;;;;9.25;3.92;;;;;;;31.60;45.84;100430.52;1732292;80;21140;-39
2021/07/16 08:22:58;;;;;;;37.48;5.03;;;;;;;31.50;47.27;100434.20;1728816;81;21005;-39
2021/07/16 08:25:24;;;;;;;34.63;5.55;;;;;;;31.54;47.01;100434.20;1742042;81;20924;-39
2021/07/16 08:27:51;;;;;;;20.27;4.78;;;;;;;31.78;46.14;100433.05;1742356;81;21008;-39
2021/07/16 08:30:18;;;;;;;46.65;5.78;;;;;;;31.79;46.65;100431.55;1734955;81;20987;-39
2021/07/16 08:32:46;;;;;;;33.42;5.92;;;;;;;31.97;48.24;100426.52;1725340;81;20936;-37
2021/07/16 08:35:13;;;;;;;24.45;4.40;;;;;;;32.28;45.69;100433.80;1725829;81;21031;-38
2021/07/16 08:37:40;;;;;;;41.35;5.67;;;;;;;32.32;46.34;100435.16;1730595;81;21064;-38
2021/07/16 08:40:09;;;;;;;22.48;5.08;;;;;;;32.52;46.60;100430.23;1725344;81;21071;-38
2021/07/16 08:42:35;;;;;;;48.05;6.60;;;;;;;32.73;47.04;100431.48;1713689;81;20961;-38
2021/07/16 08:45:08;;;;;;;29.25;4.53;;;;;;;32.91;45.86;100427.75;1731101;81;21827;-38
2021/07/16 08:47:37;;;;;;;16.82;4.65;;;;;;;32.93;45.32;100419.02;1705742;81;20948;-39
2021/07/16 08:50:06;;;;;;;23.98;4.92;;;;;;;32.94;46.42;100430.89;1719438;81;20984;-40
2021/07/16 08:52:33;;;;;;;25.92;5.90;;;;;;;32.94;45.29;100430.06;1733357;81;21066;-38
2021/07/16 08:55:01;;;;;;;9.38;3.95;;;;;;;32.99;47.04;100425.53;1720823;81;21073;-38
2021/07/16 08:57:29;;;;;;;18.90;4.53;;;;;;;33.00;45.18;100429.36;1733794;81;21817;-38
2021/07/16 08:59:56;;;;;;;38.17;5.35;;;;;;;32.98;46.58;100425.20;1732736;81;21534;-38
2021/07/16 09:02:26;;;;;;;17.50;4.42;;;;;;;33.13;45.73;100425.27;1739197;81;21019;-39
2021/07/16 09:05:01;;;;;;;19.48;4.65;;;;;;;33.16;47.03;100431.09;1743498;80;20977;-39
2021/07/16 09:07:27;;;;;;;8.35;4.20;;;;;;;33.07;46.67;100434.85;1734010;81;21039;-39
2021/07/16 09:10:08;;;;;;;8.10;4.10;;;;;;;33.00;45.21;100430.69;1741047;81;22052;-39
2021/07/16 09:12:36;;;;;;;12.25;4.40;;;;;;;32.88;45.11;100432.94;1753169;80;21023;-38
2021/07/16 09:15:14;;;;;;;16.30;4.33;;;;;;;32.92;44.57;100435.59;1726117;81;21034;-39
2021/07/16 09:17:46;;;;;;;18.30;4.47;;;;;;;32.93;45.68;100433.77;1713598;81;21560;-39
2021/07/16 09:20:23;;;;;;;17.55;4.65;;;;;;;32.89;46.46;100431.92;1734511;80;20964;-39
2021/07/16 09:23:18;;;;;;;13.25;4.97;;;;;;;32.90;45.81;100432.25;1720472;81;21136;-39
2021/07/16 09:26:05;;;;;;;16.87;4.55;;;;;;;32.84;44.82;100434.27;1743987;81;21050;-38
2021/07/16 09:28:31;;;;;;;40.60;6.00;;;;;;;32.69;45.59;100427.48;1716544;81;21630;-39
2021/07/16 09:31:25;;;;;;;19.80;4.87;;;;;;;32.85;45.86;100428.42;1726302;81;21046;-38
2021/07/16 09:33:56;;;;;;;28.45;5.42;;;;;;;32.97;44.12;100428.38;1720889;81;20976;-39
2021/07/16 09:36:35;;;;;;;51.10;6.03;;;;;;;33.11;44.96;100429.45;1737427;81;21161;-39
2021/07/16 09:39:13;;;;;;;40.40;6.33;;;;;;;33.25;42.92;100428.70;1740681;81;20988;-39
2021/07/16 09:41:52;;;;;;;12.88;4.40;;;;;;;33.19;43.40;100422.69;1756603;81;21019;-38
2021/07/16 09:44:35;;;;;;;22.75;4.45;;;;;;;33.30;44.12;100421.97;1739084;81;21011;-39
2021/07/16 09:47:21;;;;;;;25.12;4.45;;;;;;;33.30;42.68;100422.78;1740485;80;21081;-38
2021/07/16 11:06:55;;;;;;;40.40;6.17;;;;;;;33.54;40.63;100371.33;1792997;79;22951;-39
2021/07/16 11:09:39;;;;;;;27.55;5.30;;;;;;;33.48;41.64;100372.91;1757700;80;21054;-38
2021/07/16 11:12:27;;;;;;;77.10;7.53;;;;;;;33.54;38.88;100363.28;1755865;81;21931;-39
2021/07/16 11:14:55;;;;;;;38.30;6.10;;;;;;;33.46;41.29;100371.41;1727291;81;21586;-39
2021/07/16 11:17:27;;;;;;;27.90;5.25;;;;;;;33.44;39.80;100368.91;1756550;81;21752;-38
2021/07/16 11:20:16;;;;;;;44.08;7.10;;;;;;;33.38;40.54;100368.27;1756070;81;20974;-38
2021/07/16 11:23:03;;;;;;;35.23;6.15;;;;;;;33.28;40.93;100370.38;1756525;81;21496;-39
2021/07/16 11:25:30;;;;;;;51.13;6.33;;;;;;;33.28;42.94;100358.30;1751039;80;22686;-38
2021/07/16 11:27:57;;;;;;;76.47;7.70;;;;;;;33.49;42.70;100358.48;1755059;80;20932;-38
2021/07/16 11:30:25;;;;;;;102.50;8.40;;;;;;;33.68;40.26;100360.30;1756489;81;21010;-38
2021/07/16 11:32:53;;;;;;;54.38;7.47;;;;;;;33.65;42.07;100364.20;1758078;80;21039;-38
2021/07/16 11:35:20;;;;;;;65.52;6.80;;;;;;;33.72;41.21;100354.07;1714636;80;21505;-39
2021/07/16 11:37:50;;;;;;;42.05;5.97;;;;;;;33.69;40.65;100349.89;1761051;80;23216;-38
2021/07/16 11:40:27;;;;;;;179.63;12.63;;;;;;;33.66;41.16;100341.72;1764908;80;20979;-38
2021/07/16 11:43:00;;;;;;;97.25;7.80;;;;;;;33.62;42.00;100343.60;1775041;80;21039;-39
2021/07/16 11:45:33;;;;;;;62.35;7.47;;;;;;;33.71;40.56;100342.48;1771846;80;21497;-39
2021/07/16 11:48:16;;;;;;;47.95;6.40;;;;;;;33.66;41.94;100341.72;1765167;80;20941;-38
2021/07/16 11:50:46;;;;;;;80.67;7.62;;;;;;;33.73;40.22;100334.27;1768940;80;21136;-38
2021/07/16 11:53:15;;;;;;;32.73;4.90;;;;;;;33.80;41.94;100340.55;1764788;80;20936;-39
2021/07/16 11:55:44;;;;;;;128.40;11.25;;;;;;;33.79;40.95;100330.84;1768073;80;21263;-38
2021/07/16 11:58:12;;;;;;;45.00;6.53;;;;;;;33.77;41.67;100333.73;1771950;80;20979;-38
2021/07/16 12:00:41;;;;;;;116.57;10.08;;;;;;;33.79;40.92;100330.84;1748677;80;20983;-39
2021/07/16 12:03:14;;;;;;;65.55;7.45;;;;;;;33.65;41.52;100332.50;1768823;80;21752;-38
2021/07/16 12:05:50;;;;;;;42.38;5.97;;;;;;;33.75;41.15;100330.40;1727526;80;20951;-38
2021/07/16 12:08:24;;;;;;;34.60;6.30;;;;;;;33.81;42.21;100329.66;1754095;80;21487;-38
2021/07/16 12:11:11;;;;;;;74.97;6.70;;;;;;;33.84;41.47;100321.72;1759129;80;20987;-38
2021/07/16 12:13:41;;;;;;;53.98;6.67;;;;;;;33.90;41.07;100329.05;1768820;80;21524;-38
2021/07/16 12:16:13;;;;;;;70.22;8.83;;;;;;;33.85;42.43;100319.89;1758845;80;21067;-39
2021/07/16 12:18:41;;;;;;;130.03;11.95;;;;;;;34.00;41.81;100310.02;1771082;80;20984;-39
2021/07/16 12:21:10;;;;;;;36.77;6.30;;;;;;;34.01;40.70;100313.03;1759670;80;20987;-37
2021/07/16 12:23:36;;;;;;;105.63;9.38;;;;;;;33.97;41.99;100300.97;1756915;80;21635;-38
2021/07/16 12:26:20;;;;;;;75.67;6.87;;;;;;;33.96;41.57;100300.66;1752954;81;21548;-38
2021/07/16 12:28:49;;;;;;;64.72;6.50;;;;;;;33.96;42.32;100300.66;1758721;80;21152;-38
2021/07/16 12:31:21;;;;;;;42.45;5.90;;;;;;;34.16;41.28;100314.84;1764650;80;20956;-38
2021/07/16 12:33:47;;;;;;;46.60;6.75;;;;;;;34.16;41.03;100314.84;1764391;80;20944;-38
2021/07/16 12:36:32;;;;;;;28.40;5.33;;;;;;;34.05;42.37;100318.34;1766811;80;20924;-38
2021/07/16 12:38:58;;;;;;;18.85;6.47;;;;;;;34.01;41.24;100322.42;1760108;80;20976;-39
2021/07/16 12:41:26;;;;;;;94.15;34.40;;;;;;;33.98;42.90;100332.69;1765381;80;21181;-39
2021/07/16 12:43:53;;;;;;;36.45;11.20;;;;;;;33.63;45.65;100384.16;1766068;80;21591;-38
2021/07/16 12:46:28;;;;;;;11.70;6.83;;;;;;;31.51;50.34;100379.73;1731438;82;20976;-39
2021/07/16 12:49:10;;;;;;;13.22;8.13;;;;;;;29.65;56.03;100389.64;1757580;80;20980;-38